Time;durP1;ratioP1;P1;durP2;ratioP2;P2;SDS_P1;SDS_P2;PMS_P1;PMS_P2;Temp;Humidity;BMP_temperature;BMP_pressure;BME280_temperature;BME280_humidity;BME280_pressure;Samples;Min_cycle;Max_cycle;Signal;HPM_P1;HPM_P2
2023/05/15 00:01:29;;;;;;;3.47;3.17;;;13.10;99.90;;;;;;10509160;28;20222;-71
2023/05/15 00:06:30;;;;;;;3.43;3.13;;;13.10;99.90;;;;;;10512259;28;20222;-71
2023/05/15 00:11:30;;;;;;;3.37;3.07;;;13.00;99.90;;;;;;10519121;28;20751;-70
2023/05/15 00:16:31;;;;;;;3.40;3.07;;;13.00;99.90;;;;;;10498680;28;20272;-71
2023/05/15 00:21:31;;;;;;;4.00;3.60;;;12.90;99.90;;;;;;10512508;28;20693;-70
2023/05/15 00:26:32;;;;;;;3.70;3.40;;;12.90;99.90;;;;;;10515469;28;20242;-71
2023/05/15 00:31:36;;;;;;;7.77;3.60;;;12.80;99.90;;;;;;10512035;28;20303;-70
2023/05/15 00:36:36;;;;;;;4.47;3.60;;;12.70;99.90;;;;;;10496660;28;20269;-71
2023/05/15 00:41:39;;;;;;;3.40;3.10;;;12.70;99.90;;;;;;10514330;28;20254;-72
2023/05/15 00:46:40;;;;;;;3.87;3.30;;;12.60;99.90;;;;;;10516528;28;20226;-71
2023/05/15 00:51:41;;;;;;;4.00;3.60;;;12.60;99.90;;;;;;10517161;28;20222;-71
2023/05/15 00:56:44;;;;;;;4.47;3.27;;;12.50;99.90;;;;;;10508205;28;20223;-71
2023/05/15 01:01:45;;;;;;;3.90;3.60;;;12.40;99.90;;;;;;10513357;28;20255;-71
2023/05/15 01:06:52;;;;;;;3.47;3.17;;;12.30;99.90;;;;;;10494142;28;20230;-71
2023/05/15 01:11:56;;;;;;;3.50;3.20;;;12.20;99.90;;;;;;10511723;28;20226;-71
2023/05/15 01:16:56;;;;;;;3.53;3.23;;;12.10;99.90;;;;;;10502171;28;20240;-71
2023/05/15 01:22:19;;;;;;;3.80;3.50;;;12.00;99.90;;;;;;10512975;28;20222;-71
2023/05/15 01:27:37;;;;;;;3.53;3.20;;;12.00;99.90;;;;;;10515438;28;20227;-71
2023/05/15 01:32:42;;;;;;;3.67;3.37;;;12.00;99.90;;;;;;10519031;28;20223;-71
2023/05/15 01:37:48;;;;;;;4.47;3.40;;;11.90;99.90;;;;;;10497313;28;20238;-71
2023/05/15 01:42:54;;;;;;;4.17;3.77;;;11.80;99.90;;;;;;10497908;28;20234;-71
2023/05/15 01:47:58;;;;;;;3.77;3.47;;;11.80;99.90;;;;;;10517710;28;20241;-72
2023/05/15 01:53:01;;;;;;;4.23;3.90;;;11.70;99.90;;;;;;10518199;28;20324;-72
2023/05/15 01:58:03;;;;;;;4.13;3.73;;;11.50;99.90;;;;;;10508155;28;20318;-70
2023/05/15 02:03:05;;;;;;;3.97;3.57;;;11.40;99.90;;;;;;10505854;28;20227;-71
2023/05/15 02:08:08;;;;;;;4.10;3.70;;;11.40;99.90;;;;;;10487856;28;20579;-70
2023/05/15 02:13:10;;;;;;;4.60;3.77;;;11.30;99.90;;;;;;10513199;28;20583;-72
2023/05/15 02:18:11;;;;;;;5.63;4.07;;;11.20;99.90;;;;;;10507105;28;20258;-71
2023/05/15 02:23:11;;;;;;;4.07;3.70;;;11.00;99.90;;;;;;10495219;28;20762;-71
2023/05/15 02:28:27;;;;;;;4.40;3.97;;;11.00;99.90;;;;;;10505065;28;20591;-71
2023/05/15 02:33:40;;;;;;;4.40;4.00;;;11.00;99.90;;;;;;10495835;28;20567;-71
2023/05/15 02:38:47;;;;;;;4.43;4.03;;;11.00;99.90;;;;;;10504953;28;20229;-72
2023/05/15 02:43:50;;;;;;;5.60;4.27;;;11.00;99.90;;;;;;10517912;28;20276;-71
2023/05/15 02:48:52;;;;;;;5.13;4.17;;;11.00;99.90;;;;;;10509014;28;20229;-72
2023/05/15 02:53:59;;;;;;;4.73;4.33;;;11.10;99.90;;;;;;10511397;28;20712;-72
2023/05/15 02:59:03;;;;;;;5.37;4.80;;;11.10;99.90;;;;;;10491728;28;20226;-70
2023/05/15 03:04:04;;;;;;;4.73;4.27;;;11.10;99.90;;;;;;10505353;28;20313;-71
2023/05/15 03:09:04;;;;;;;5.70;4.40;;;11.10;99.90;;;;;;10511510;28;20326;-71
2023/05/15 03:14:05;;;;;;;4.57;4.17;;;11.10;99.90;;;;;;10512118;28;20699;-71
2023/05/15 03:19:05;;;;;;;5.00;3.80;;;11.10;99.90;;;;;;10504959;28;20230;-71
2023/05/15 03:24:06;;;;;;;6.20;4.30;;;11.10;99.90;;;;;;10510708;28;20319;-72
2023/05/15 03:29:07;;;;;;;4.97;4.03;;;11.10;99.90;;;;;;10511015;28;20227;-71
2023/05/15 03:34:07;;;;;;;4.83;4.37;;;11.00;99.90;;;;;;10493574;28;20307;-71
2023/05/15 03:39:08;;;;;;;5.37;4.23;;;11.10;99.90;;;;;;10496596;28;20252;-71
2023/05/15 03:44:09;;;;;;;7.83;4.43;;;11.10;99.90;;;;;;10508965;28;20221;-70
2023/05/15 03:49:09;;;;;;;5.03;4.50;;;11.20;99.90;;;;;;10494041;28;20230;-71
2023/05/15 03:54:10;;;;;;;4.90;4.47;;;11.20;99.90;;;;;;10521861;28;20222;-70
2023/05/15 03:59:10;;;;;;;5.10;4.60;;;11.30;99.90;;;;;;10508680;28;20231;-71
2023/05/15 04:04:11;;;;;;;5.77;5.27;;;11.30;99.90;;;;;;10528010;28;20245;-72
2023/05/15 04:09:11;;;;;;;7.10;5.33;;;11.30;99.90;;;;;;10492833;28;20230;-71
2023/05/15 04:14:12;;;;;;;7.50;4.93;;;11.40;99.90;;;;;;10500174;28;20226;-72
2023/05/15 04:19:13;;;;;;;5.03;4.63;;;11.50;99.90;;;;;;10511099;28;20234;-70
2023/05/15 04:24:13;;;;;;;5.60;4.40;;;11.50;99.90;;;;;;10525493;28;20554;-70
2023/05/15 04:29:14;;;;;;;5.17;4.67;;;11.60;99.90;;;;;;10510118;28;20230;-71
2023/05/15 04:34:15;;;;;;;8.03;5.10;;;11.70;99.90;;;;;;10515487;28;20931;-72
2023/05/15 04:39:16;;;;;;;7.13;4.67;;;11.80;99.90;;;;;;10496413;28;20248;-71
2023/05/15 04:44:16;;;;;;;6.17;4.53;;;12.00;99.90;;;;;;10517359;28;20797;-71
2023/05/15 04:49:17;;;;;;;7.70;5.47;;;12.20;99.90;;;;;;10509013;28;20588;-70
2023/05/15 04:54:18;;;;;;;7.47;4.83;;;12.40;99.90;;;;;;10490235;28;20823;-71
2023/05/15 04:59:18;;;;;;;5.30;4.80;;;12.60;99.90;;;;;;10515683;28;20255;-70
2023/05/15 05:04:19;;;;;;;5.27;4.77;;;13.20;99.90;;;;;;10507742;28;20227;-71
2023/05/15 05:09:20;;;;;;;4.60;4.20;;;14.40;99.90;;;;;;10515679;28;20581;-71
2023/05/15 05:14:20;;;;;;;8.83;5.10;;;15.20;99.90;;;;;;10507037;28;20343;-73
2023/05/15 05:19:21;;;;;;;7.77;4.87;;;16.00;99.90;;;;;;10506964;28;20287;-71
2023/05/15 05:24:21;;;;;;;6.00;4.80;;;16.10;99.90;;;;;;10496454;28;20238;-71
2023/05/15 05:29:22;;;;;;;6.07;4.10;;;16.20;99.90;;;;;;10514367;28;20267;-71
2023/05/15 05:34:23;;;;;;;4.37;3.97;;;16.40;99.90;;;;;;10497699;28;20221;-71
2023/05/15 05:39:23;;;;;;;9.97;4.03;;;16.40;99.90;;;;;;10495315;28;20664;-72
2023/05/15 05:44:24;;;;;;;5.10;4.20;;;17.40;99.90;;;;;;10488725;28;20313;-70
2023/05/15 05:49:25;;;;;;;3.30;3.00;;;20.00;99.90;;;;;;10501582;28;20227;-72
2023/05/15 05:54:25;;;;;;;6.40;3.33;;;22.60;99.90;;;;;;10512494;28;20255;-71
2023/05/15 05:59:29;;;;;;;3.13;2.83;;;24.80;97.30;;;;;;10513859;28;20233;-72
2023/05/15 06:04:32;;;;;;;3.93;3.20;;;25.70;91.10;;;;;;10487625;28;20686;-72
2023/05/15 06:09:32;;;;;;;2.37;2.17;;;26.80;84.50;;;;;;10511817;28;20302;-72
2023/05/15 06:14:34;;;;;;;4.87;2.40;;;27.40;77.20;;;;;;10507372;28;20328;-72
2023/05/15 06:19:35;;;;;;;3.77;2.70;;;28.00;70.30;;;;;;10493411;28;20222;-72
2023/05/15 06:24:36;;;;;;;3.13;2.40;;;28.80;66.10;;;;;;10508222;28;20218;-72
2023/05/15 06:29:36;;;;;;;3.50;2.53;;;29.60;60.00;;;;;;10501200;28;20233;-72
2023/05/15 06:34:37;;;;;;;6.50;2.87;;;29.10;58.90;;;;;;10506808;28;20264;-72
2023/05/15 06:39:37;;;;;;;4.53;2.80;;;28.10;61.20;;;;;;10501035;28;20241;-72
2023/05/15 06:44:38;;;;;;;4.07;2.77;;;29.30;59.20;;;;;;10494727;28;20745;-72
2023/05/15 06:49:38;;;;;;;3.70;3.10;;;30.50;56.20;;;;;;10505373;28;20221;-72
2023/05/15 06:54:40;;;;;;;3.87;2.67;;;31.00;53.90;;;;;;10498981;28;20783;-71
2023/05/15 06:59:41;;;;;;;3.40;2.43;;;31.60;52.50;;;;;;10507277;28;20214;-72
2023/05/15 07:04:41;;;;;;;2.87;2.60;;;31.80;51.80;;;;;;10512691;28;20279;-71
2023/05/15 07:09:44;;;;;;;3.13;2.53;;;31.50;50.90;;;;;;10509166;28;20725;-73
2023/05/15 07:14:45;;;;;;;4.03;2.10;;;31.50;51.00;;;;;;10495302;28;20289;-73
2023/05/15 07:19:45;;;;;;;5.03;2.70;;;32.60;49.20;;;;;;10520380;28;20305;-71
2023/05/15 07:24:46;;;;;;;2.20;1.83;;;33.10;47.50;;;;;;10516363;28;20441;-71
2023/05/15 07:29:47;;;;;;;2.47;2.17;;;33.50;47.20;;;;;;10494718;28;20227;-73
2023/05/15 07:34:47;;;;;;;2.97;2.30;;;34.20;45.00;;;;;;10519858;28;20214;-72
2023/05/15 07:39:48;;;;;;;3.60;2.47;;;34.50;44.20;;;;;;10520118;28;20214;-72
2023/05/15 07:44:49;;;;;;;6.70;2.73;;;35.00;43.50;;;;;;10515306;28;20211;-72
2023/05/15 07:49:52;;;;;;;5.70;2.70;;;34.90;42.40;;;;;;10496751;28;20210;-72
2023/05/15 07:54:53;;;;;;;4.63;2.37;;;35.30;41.70;;;;;;10520230;28;20210;-72
2023/05/15 07:59:54;;;;;;;4.27;2.70;;;36.30;40.80;;;;;;10519417;28;20223;-72
2023/05/15 08:04:55;;;;;;;2.90;2.60;;;36.90;38.80;;;;;;10518288;28;20210;-71
2023/05/15 08:09:55;;;;;;;3.43;2.40;;;37.80;37.70;;;;;;10518022;28;20309;-72
2023/05/15 08:14:56;;;;;;;2.40;2.20;;;38.30;37.10;;;;;;10512719;28;20234;-72
2023/05/15 08:19:57;;;;;;;3.83;2.60;;;37.80;37.30;;;;;;10514688;28;20236;-72
2023/05/15 08:25:02;;;;;;;2.90;2.10;;;37.80;36.50;;;;;;10510805;28;20719;-71
2023/05/15 08:30:03;;;;;;;2.47;2.20;;;37.30;37.00;;;;;;10517153;28;20353;-72
2023/05/15 08:35:04;;;;;;;5.30;2.60;;;37.80;35.60;;;;;;10515027;28;20218;-73
2023/05/15 08:40:08;;;;;;;5.23;3.23;;;38.00;36.00;;;;;;10490230;28;20211;-72
2023/05/15 08:45:09;;;;;;;3.00;2.80;;;38.00;35.60;;;;;;10526479;28;20222;-72
2023/05/15 08:50:13;;;;;;;3.07;2.50;;;38.30;34.60;;;;;;10520231;28;20211;-72
2023/05/15 08:55:14;;;;;;;2.53;2.33;;;37.80;35.90;;;;;;10516235;28;20283;-72
2023/05/15 09:00:16;;;;;;;4.03;2.93;;;38.00;35.30;;;;;;10490204;28;20184;-72
2023/05/15 09:05:17;;;;;;;3.83;3.40;;;38.20;36.20;;;;;;10514489;28;20244;-72
2023/05/15 09:10:18;;;;;;;4.63;3.60;;;38.00;35.20;;;;;;10507571;28;20516;-73
2023/05/15 09:15:21;;;;;;;4.27;3.00;;;35.70;38.80;;;;;;10523511;28;20264;-72
2023/05/15 09:20:26;;;;;;;6.20;3.43;;;37.70;36.50;;;;;;10506217;28;20191;-73
2023/05/15 09:25:40;;;;;;;4.97;3.40;;;38.70;34.40;;;;;;10516218;28;20218;-72
2023/05/15 09:30:41;;;;;;;5.97;3.40;;;37.50;35.00;;;;;;10511412;28;20215;-72
2023/05/15 09:35:44;;;;;;;7.13;4.00;;;36.70;37.00;;;;;;10521526;28;20264;-73
2023/05/15 09:40:44;;;;;;;5.13;3.23;;;38.10;34.40;;;;;;10511721;28;20558;-72
2023/05/15 09:45:47;;;;;;;4.93;3.53;;;39.30;34.10;;;;;;10509537;28;20219;-73
2023/05/15 09:50:48;;;;;;;5.00;4.20;;;39.70;33.00;;;;;;10514370;28;20649;-73
2023/05/15 09:55:52;;;;;;;5.03;4.47;;;40.20;32.00;;;;;;10509431;28;20219;-73
2023/05/15 10:00:53;;;;;;;5.40;4.90;;;40.30;32.00;;;;;;10510409;28;20973;-72
2023/05/15 10:06:03;;;;;;;5.63;5.00;;;40.20;31.60;;;;;;10518682;28;20313;-72
2023/05/15 10:11:05;;;;;;;6.20;5.57;;;40.80;31.30;;;;;;10523371;28;20295;-72
2023/05/15 10:16:06;;;;;;;5.03;4.60;;;40.60;30.50;;;;;;10511721;28;20249;-73
2023/05/15 10:21:11;;;;;;;5.77;5.27;;;40.60;31.80;;;;;;10507213;28;20219;-72
2023/05/15 10:26:25;;;;;;;5.90;5.30;;;38.60;31.40;;;;;;10512637;28;20218;-71
2023/05/15 10:31:30;;;;;;;8.93;7.50;;;36.80;33.50;;;;;;10512520;28;20258;-71
2023/05/15 10:36:32;;;;;;;9.10;7.80;;;36.80;35.10;;;;;;10514744;28;20276;-72
2023/05/15 10:41:38;;;;;;;10.43;7.93;;;38.00;34.20;;;;;;10512695;28;20260;-71
2023/05/15 10:46:39;;;;;;;14.70;10.20;;;35.10;37.00;;;;;;10512689;28;20310;-71
2023/05/15 10:51:41;;;;;;;12.87;11.20;;;31.40;47.20;;;;;;10502729;28;20221;-71
2023/05/15 10:56:42;;;;;;;13.93;9.83;;;28.20;53.80;;;;;;10516090;28;20222;-71
2023/05/15 11:01:42;;;;;;;14.43;11.87;;;26.30;58.60;;;;;;10524902;28;20215;-71
2023/05/15 11:06:48;;;;;;;15.40;12.07;;;25.00;64.80;;;;;;10516413;28;20290;-70
2023/05/15 11:11:57;;;;;;;13.20;11.30;;;25.00;69.20;;;;;;10516592;28;20246;-71
2023/05/15 11:16:59;;;;;;;15.37;13.27;;;25.70;68.80;;;;;;10499600;28;20223;-72
2023/05/15 11:22:17;;;;;;;14.23;12.73;;;26.80;65.70;;;;;;10511153;28;20690;-71
2023/05/15 11:27:28;;;;;;;14.73;11.83;;;27.20;65.60;;;;;;10519149;28;20236;-72
2023/05/15 11:32:46;;;;;;;17.87;12.43;;;27.80;61.70;;;;;;10520740;28;20276;-71
2023/05/15 11:38:25;;;;;;;16.20;11.80;;;27.70;65.00;;;;;;10523673;28;20241;-71
2023/05/15 11:43:30;;;;;;;14.37;10.60;;;26.80;63.50;;;;;;10516570;28;20351;-71
2023/05/15 11:48:38;;;;;;;12.43;9.57;;;26.10;64.40;;;;;;10500901;28;20317;-71
2023/05/15 11:53:39;;;;;;;12.77;11.10;;;26.20;67.20;;;;;;10498398;28;20230;-71
2023/05/15 11:58:41;;;;;;;12.53;10.20;;;25.90;70.30;;;;;;10511727;28;20306;-71
2023/05/15 12:03:45;;;;;;;13.93;11.37;;;25.90;70.00;;;;;;10505047;28;20853;-71
2023/05/15 12:08:51;;;;;;;13.33;10.93;;;25.50;67.60;;;;;;10512979;28;20227;-71
2023/05/15 12:13:54;;;;;;;14.40;11.47;;;25.20;68.80;;;;;;10515975;28;20217;-72
2023/05/15 12:18:58;;;;;;;14.73;11.67;;;24.90;66.90;;;;;;10512958;28;20290;-72
2023/05/15 12:23:59;;;;;;;10.10;9.10;;;24.80;70.90;;;;;;10514582;28;20219;-72
2023/05/15 12:29:00;;;;;;;10.03;8.77;;;24.60;67.80;;;;;;10517697;28;20241;-71
2023/05/15 12:34:01;;;;;;;8.90;8.00;;;24.80;69.40;;;;;;10515120;28;20219;-72
2023/05/15 12:39:06;;;;;;;9.77;8.27;;;25.10;57.50;;;;;;10523291;28;20237;-71
2023/05/15 12:44:15;;;;;;;10.80;6.50;;;25.90;58.60;;;;;;10521766;28;20306;-72
2023/05/15 12:49:20;;;;;;;6.83;6.23;;;26.10;54.90;;;;;;10516146;28;20219;-72
2023/05/15 12:54:23;;;;;;;5.90;5.37;;;25.70;54.20;;;;;;10508967;28;20219;-72
2023/05/15 12:59:23;;;;;;;5.13;4.63;;;25.70;53.70;;;;;;10515584;28;20325;-72
2023/05/15 13:04:24;;;;;;;5.90;5.30;;;25.80;51.30;;;;;;10495227;28;20568;-72
2023/05/15 13:09:25;;;;;;;5.73;5.20;;;26.20;52.10;;;;;;10481065;28;20226;-72
2023/05/15 13:14:32;;;;;;;8.97;7.30;;;26.20;48.20;;;;;;10515642;28;20688;-71
2023/05/15 13:19:33;;;;;;;12.63;8.00;;;24.20;60.40;;;;;;10508645;28;20231;-71
2023/05/15 13:24:34;;;;;;;10.87;7.27;;;22.10;66.40;;;;;;10521443;28;20253;-72
2023/05/15 13:29:34;;;;;;;8.30;6.73;;;21.20;72.00;;;;;;10516723;28;20292;-72
2023/05/15 13:34:35;;;;;;;7.77;6.43;;;21.00;71.10;;;;;;10512864;28;20227;-71
2023/05/15 13:39:36;;;;;;;9.23;6.80;;;20.90;71.80;;;;;;10508509;28;20231;-72
2023/05/15 13:44:36;;;;;;;7.13;6.10;;;20.50;68.90;;;;;;10512309;28;20653;-72
2023/05/15 13:49:37;;;;;;;8.13;6.60;;;21.10;67.10;;;;;;10508426;28;20310;-72
2023/05/15 13:54:38;;;;;;;8.50;5.87;;;21.60;66.10;;;;;;10496990;28;20587;-70
2023/05/15 13:59:38;;;;;;;6.97;5.93;;;21.40;68.00;;;;;;10510738;28;20230;-71
2023/05/15 14:04:39;;;;;;;6.87;5.50;;;21.40;63.30;;;;;;10495916;28;20215;-72
2023/05/15 14:09:40;;;;;;;7.67;6.13;;;21.20;63.90;;;;;;10507698;28;20229;-71
2023/05/15 14:14:40;;;;;;;8.17;6.03;;;21.10;65.00;;;;;;10519032;28;20310;-71
2023/05/15 14:19:41;;;;;;;7.97;6.07;;;21.10;67.90;;;;;;10516331;28;20223;-71
2023/05/15 14:24:42;;;;;;;13.53;6.60;;;20.80;73.60;;;;;;10508124;28;20321;-70
2023/05/15 14:29:43;;;;;;;9.00;6.00;;;20.80;73.90;;;;;;10491913;28;20310;-71
2023/05/15 14:34:44;;;;;;;7.40;6.20;;;20.50;76.00;;;;;;10508096;28;20237;-72
2023/05/15 14:39:44;;;;;;;6.67;5.97;;;20.50;77.90;;;;;;10515435;28;20231;-71
2023/05/15 14:44:45;;;;;;;6.77;4.83;;;20.50;75.90;;;;;;10496830;28;20254;-71
2023/05/15 14:49:45;;;;;;;7.37;5.07;;;20.50;73.90;;;;;;10514477;28;20830;-71
2023/05/15 14:54:46;;;;;;;7.33;4.90;;;20.60;74.00;;;;;;10508179;28;20218;-72
2023/05/15 14:59:46;;;;;;;6.20;4.57;;;20.50;73.60;;;;;;10516520;28;20219;-71
2023/05/15 15:04:47;;;;;;;5.07;3.20;;;20.50;71.30;;;;;;10507463;28;20689;-71
2023/05/15 15:09:48;;;;;;;3.53;2.80;;;20.30;68.10;;;;;;10507993;28;20787;-72
2023/05/15 15:14:48;;;;;;;4.77;3.40;;;20.50;69.40;;;;;;10507623;28;20275;-71
2023/05/15 15:19:49;;;;;;;3.37;3.07;;;20.90;68.30;;;;;;10490020;28;20816;-70
2023/05/15 15:24:50;;;;;;;5.93;4.23;;;21.30;68.60;;;;;;10518427;28;20571;-72
2023/05/15 15:29:51;;;;;;;7.57;3.70;;;21.20;68.70;;;;;;10490023;28;20317;-71
2023/05/15 15:34:51;;;;;;;5.07;3.73;;;21.00;69.20;;;;;;10510865;28;20290;-72
2023/05/15 15:39:52;;;;;;;4.10;3.70;;;20.60;69.90;;;;;;10515173;28;20226;-72
2023/05/15 15:44:54;;;;;;;4.40;4.00;;;20.50;70.30;;;;;;10514799;28;20231;-71
2023/05/15 15:49:54;;;;;;;6.47;4.23;;;20.20;72.20;;;;;;10515868;28;20214;-71
2023/05/15 15:54:55;;;;;;;5.50;4.00;;;20.00;72.20;;;;;;10496316;28;20215;-72
2023/05/15 15:59:55;;;;;;;4.80;4.30;;;19.80;73.70;;;;;;10515258;28;20548;-72
2023/05/15 16:04:56;;;;;;;4.57;4.10;;;19.70;73.60;;;;;;10501448;28;20686;-72
2023/05/15 16:09:59;;;;;;;5.00;4.23;;;19.50;75.40;;;;;;10505839;28;20302;-72
2023/05/15 16:15:01;;;;;;;4.33;3.87;;;19.30;74.20;;;;;;10519757;28;20258;-71
2023/05/15 16:20:02;;;;;;;4.17;3.77;;;19.20;75.00;;;;;;10505017;28;20207;-71
2023/05/15 16:25:03;;;;;;;7.03;4.00;;;19.30;75.00;;;;;;10509347;28;20210;-71
2023/05/15 16:30:04;;;;;;;6.60;4.03;;;19.40;75.20;;;;;;10511018;28;20737;-72
2023/05/15 16:35:06;;;;;;;6.00;4.10;;;19.60;74.20;;;;;;10496917;28;20287;-71
2023/05/15 16:40:07;;;;;;;4.03;3.70;;;19.60;73.20;;;;;;10499917;28;20214;-72
2023/05/15 16:45:08;;;;;;;4.50;3.60;;;19.60;74.30;;;;;;10524487;28;20231;-71
2023/05/15 16:50:11;;;;;;;5.10;3.50;;;19.50;72.80;;;;;;10508974;28;20803;-71
2023/05/15 16:55:14;;;;;;;5.47;3.90;;;19.40;72.60;;;;;;10496756;28;20297;-71
2023/05/15 17:00:15;;;;;;;5.63;3.73;;;19.40;72.60;;;;;;10507942;28;20178;-72
2023/05/15 17:05:18;;;;;;;4.60;3.97;;;19.20;72.50;;;;;;10507976;28;20515;-72
2023/05/15 17:10:19;;;;;;;4.43;3.80;;;19.10;72.00;;;;;;10515484;28;20661;-72
2023/05/15 17:15:20;;;;;;;5.93;4.70;;;19.00;71.20;;;;;;10515630;28;20213;-71
2023/05/15 17:20:20;;;;;;;4.63;3.80;;;19.00;71.00;;;;;;10520638;28;20183;-72
2023/05/15 17:25:21;;;;;;;5.27;4.40;;;19.00;71.90;;;;;;10507446;28;20240;-71
2023/05/15 17:30:22;;;;;;;5.70;4.17;;;19.00;71.30;;;;;;10517702;28;20891;-72
2023/05/15 17:35:22;;;;;;;5.80;4.30;;;19.10;72.80;;;;;;10507253;28;20215;-71
2023/05/15 17:40:23;;;;;;;6.37;5.43;;;19.10;73.50;;;;;;10514565;28;20194;-71
2023/05/15 17:45:24;;;;;;;6.90;4.80;;;19.10;74.40;;;;;;10488361;28;20195;-71
2023/05/15 17:50:24;;;;;;;6.53;4.40;;;19.20;75.60;;;;;;10513512;28;20330;-70
2023/05/15 17:55:25;;;;;;;6.13;5.37;;;19.10;76.80;;;;;;10505695;28;20234;-71
2023/05/15 18:00:26;;;;;;;9.40;4.67;;;19.10;77.20;;;;;;10495244;28;20183;-71
2023/05/15 18:05:26;;;;;;;6.00;4.77;;;19.10;77.70;;;;;;10502290;28;20269;-72
2023/05/15 18:10:27;;;;;;;6.30;5.33;;;19.10;78.90;;;;;;10488736;28;20226;-71
2023/05/15 18:15:30;;;;;;;7.83;5.17;;;19.10;79.60;;;;;;10511720;28;20726;-72
2023/05/15 18:20:31;;;;;;;6.13;4.80;;;18.90;80.00;;;;;;10513496;28;20223;-72
2023/05/15 18:25:35;;;;;;;6.73;4.97;;;18.90;81.00;;;;;;10510903;28;20218;-72
2023/05/15 18:30:36;;;;;;;6.33;5.10;;;18.90;81.50;;;;;;10507278;28;20237;-72
2023/05/15 18:35:36;;;;;;;10.27;4.60;;;18.60;81.40;;;;;;10516281;28;20233;-72
2023/05/15 18:40:37;;;;;;;6.63;4.60;;;18.50;81.00;;;;;;10506827;28;20222;-72
2023/05/15 18:45:38;;;;;;;5.53;4.37;;;18.20;81.20;;;;;;10518379;28;20227;-72
2023/05/15 18:50:38;;;;;;;5.97;4.30;;;18.00;81.80;;;;;;10508938;28;20217;-72
2023/05/15 18:55:39;;;;;;;5.40;4.43;;;17.80;81.80;;;;;;10497747;28;20779;-72
2023/05/15 19:00:39;;;;;;;5.43;4.73;;;17.60;82.50;;;;;;10510047;28;20225;-72
2023/05/15 19:05:40;;;;;;;7.47;4.80;;;17.40;83.90;;;;;;10489598;28;20236;-72
2023/05/15 19:10:49;;;;;;;5.50;4.90;;;17.30;84.40;;;;;;10513099;28;20229;-71
2023/05/15 19:15:51;;;;;;;6.33;5.20;;;17.10;85.60;;;;;;10524217;28;20579;-71
2023/05/15 19:20:53;;;;;;;5.70;5.10;;;17.00;88.20;;;;;;10515534;28;20308;-71
2023/05/15 19:25:53;;;;;;;5.77;4.97;;;16.80;90.30;;;;;;10519731;28;20261;-65
2023/05/15 19:30:54;;;;;;;7.13;4.83;;;16.70;90.60;;;;;;10523678;28;20237;-65
2023/05/15 19:35:54;;;;;;;7.23;5.70;;;16.60;90.80;;;;;;10496056;28;20227;-66
2023/05/15 19:40:55;;;;;;;8.90;5.70;;;16.70;91.00;;;;;;10515904;28;20237;-65
2023/05/15 19:45:55;;;;;;;9.93;6.03;;;16.80;92.40;;;;;;10514012;28;20736;-71
2023/05/15 19:50:56;;;;;;;7.90;6.30;;;16.90;93.00;;;;;;10515685;28;20581;-69
2023/05/15 19:55:57;;;;;;;10.97;6.00;;;16.90;93.70;;;;;;10513548;28;20223;-71
2023/05/15 20:00:57;;;;;;;6.43;5.10;;;17.00;94.60;;;;;;10518712;28;20240;-71
2023/05/15 20:06:01;;;;;;;6.80;5.37;;;16.90;94.90;;;;;;10507617;28;20313;-72
2023/05/15 20:11:02;;;;;;;9.17;5.73;;;16.80;94.80;;;;;;10512602;28;20222;-73
2023/05/15 20:16:08;;;;;;;7.20;5.60;;;16.50;96.40;;;;;;10520906;28;20593;-73
2023/05/15 20:21:10;;;;;;;10.17;6.30;;;16.30;97.70;;;;;;10523591;28;20369;-74
2023/05/15 20:26:10;;;;;;;7.50;6.17;;;16.00;99.40;;;;;;10526289;28;20252;-73
2023/05/15 20:31:11;;;;;;;8.17;6.30;;;15.90;99.90;;;;;;10520566;28;20293;-72
2023/05/15 20:36:13;;;;;;;8.60;6.93;;;15.70;99.90;;;;;;10498699;28;20234;-71
2023/05/15 20:41:15;;;;;;;8.73;7.47;;;15.60;99.90;;;;;;10526544;28;20265;-71
2023/05/15 20:46:15;;;;;;;10.30;9.20;;;15.60;99.90;;;;;;10516791;28;20206;-73
2023/05/15 20:51:16;;;;;;;11.30;9.27;;;15.60;99.90;;;;;;10533480;28;20210;-72
2023/05/15 20:56:18;;;;;;;10.43;9.33;;;15.80;99.90;;;;;;10527906;28;20225;-72
2023/05/15 21:01:18;;;;;;;11.30;8.23;;;15.90;99.90;;;;;;10512520;28;20230;-73
2023/05/15 21:06:20;;;;;;;9.20;7.80;;;16.00;99.90;;;;;;10508415;28;20212;-74
2023/05/15 21:11:21;;;;;;;10.17;7.60;;;16.00;99.90;;;;;;10498583;28;20226;-74
2023/05/15 21:16:21;;;;;;;7.63;6.60;;;16.00;99.90;;;;;;10506884;28;20220;-72
2023/05/15 21:21:22;;;;;;;8.57;7.57;;;16.00;99.90;;;;;;10515195;28;20692;-73
2023/05/15 21:26:24;;;;;;;9.60;8.20;;;15.90;99.90;;;;;;10515257;28;20276;-72
2023/05/15 21:31:25;;;;;;;9.73;8.47;;;15.90;99.90;;;;;;10515187;28;20221;-74
2023/05/15 21:36:26;;;;;;;10.13;8.37;;;15.90;99.90;;;;;;10514238;28;20252;-71
2023/05/15 21:41:26;;;;;;;11.90;9.77;;;15.90;99.90;;;;;;10506719;28;20215;-73
2023/05/15 21:46:27;;;;;;;13.70;10.40;;;15.80;99.90;;;;;;10496391;28;20723;-72
2023/05/15 21:51:28;;;;;;;12.83;9.37;;;15.80;99.90;;;;;;10507789;28;20222;-72
2023/05/15 21:56:28;;;;;;;11.57;9.70;;;15.60;99.90;;;;;;10513529;28;20228;-72
2023/05/15 22:01:32;;;;;;;12.10;9.83;;;15.50;99.90;;;;;;10507402;28;20252;-72
2023/05/15 22:06:32;;;;;;;12.40;11.10;;;15.40;99.90;;;;;;10514986;28;20672;-72
2023/05/15 22:11:33;;;;;;;13.40;10.90;;;15.30;99.90;;;;;;10506511;28;20294;-75
2023/05/15 22:16:33;;;;;;;11.97;10.73;;;15.40;99.90;;;;;;10512414;28;20226;-74
2023/05/15 22:21:34;;;;;;;13.87;11.60;;;15.30;99.90;;;;;;10495703;28;20211;-74
2023/05/15 22:26:35;;;;;;;14.83;13.13;;;15.20;99.90;;;;;;10494383;28;20899;-74
2023/05/15 22:31:35;;;;;;;20.20;14.40;;;15.30;99.90;;;;;;10509362;28;20309;-73
2023/05/15 22:36:36;;;;;;;19.00;16.47;;;15.30;99.90;;;;;;10513062;28;20257;-72
2023/05/15 22:41:36;;;;;;;18.70;15.40;;;15.20;99.90;;;;;;10514695;28;20214;-71
2023/05/15 22:46:37;;;;;;;19.93;15.67;;;15.20;99.90;;;;;;10534241;28;20652;-71
2023/05/15 22:51:38;;;;;;;18.60;16.50;;;15.20;99.90;;;;;;10511410;28;20210;-73
2023/05/15 22:56:39;;;;;;;19.07;16.63;;;15.10;99.90;;;;;;10524478;28;20259;-74
2023/05/15 23:01:40;;;;;;;21.40;17.97;;;15.10;99.90;;;;;;10503583;28;20216;-74
2023/05/15 23:06:41;;;;;;;22.17;17.20;;;15.10;99.90;;;;;;10527474;28;20663;-71
2023/05/15 23:11:42;;;;;;;20.40;17.23;;;15.10;99.90;;;;;;10523608;28;20243;-71
2023/05/15 23:16:43;;;;;;;18.87;16.80;;;15.10;99.90;;;;;;10503059;28;20233;-72
2023/05/15 23:21:43;;;;;;;20.57;18.37;;;15.00;99.90;;;;;;10521219;28;20214;-71
2023/05/15 23:26:45;;;;;;;20.87;17.10;;;14.90;99.90;;;;;;10525478;28;20686;-72
2023/05/15 23:31:46;;;;;;;19.00;16.20;;;15.00;99.90;;;;;;10509558;28;20226;-72
2023/05/15 23:36:46;;;;;;;19.60;16.57;;;15.00;99.90;;;;;;10521977;28;20304;-72
2023/05/15 23:41:47;;;;;;;19.37;16.90;;;15.00;99.90;;;;;;10522598;28;20602;-72
2023/05/15 23:46:49;;;;;;;18.47;16.53;;;15.00;99.90;;;;;;10522335;28;20274;-72
2023/05/15 23:51:49;;;;;;;17.97;15.33;;;15.00;99.90;;;;;;10523289;28;20223;-72
2023/05/15 23:56:50;;;;;;;20.73;18.37;;;14.90;99.90;;;;;;10503194;28;20280;-72
